Time;durP1;ratioP1;P1;durP2;ratioP2;P2;SDS_P1;SDS_P2;PMS_P1;PMS_P2;Temp;Humidity;BMP_temperature;BMP_pressure;BME280_temperature;BME280_humidity;BME280_pressure;Samples;Min_cycle;Max_cycle;Signal;HPM_P1;HPM_P2
2022/03/28 00:02:05;;;;;;;9.75;7.05;;;;;;;8.12;58.87;100928.16;10281553;28;20148;-82
2022/03/28 00:07:07;;;;;;;9.85;6.85;;;;;;;8.06;59.23;100928.34;10297513;28;20058;-82
2022/03/28 00:12:10;;;;;;;12.73;8.18;;;;;;;8.00;59.30;100923.34;10300182;28;20113;-81
2022/03/28 00:17:12;;;;;;;9.95;6.90;;;;;;;7.92;59.33;100923.59;10299769;28;20046;-82
2022/03/28 00:22:14;;;;;;;8.80;7.13;;;;;;;7.90;59.10;100916.72;10280864;28;20051;-81
2022/03/28 00:27:17;;;;;;;9.48;7.10;;;;;;;7.84;59.27;100914.34;10294984;28;20074;-82
2022/03/28 00:32:19;;;;;;;9.70;6.78;;;;;;;7.76;59.85;100911.13;10296551;28;20049;-82
2022/03/28 00:37:21;;;;;;;9.32;7.10;;;;;;;7.76;59.65;100904.19;10298518;28;20166;-82
2022/03/28 00:42:23;;;;;;;11.13;7.18;;;;;;;7.70;59.89;100901.78;10277940;28;20567;-82
2022/03/28 00:47:24;;;;;;;10.35;7.55;;;;;;;7.60;59.97;100902.97;10299094;28;20136;-82
2022/03/28 00:52:26;;;;;;;9.43;6.75;;;;;;;7.57;59.78;100908.25;10295415;28;20134;-82
2022/03/28 00:57:30;;;;;;;9.68;7.50;;;;;;;7.45;60.14;100908.66;10298274;28;20535;-82
2022/03/28 01:02:31;;;;;;;9.80;7.50;;;;;;;7.31;60.39;100891.75;10299248;28;20072;-81
2022/03/28 01:07:34;;;;;;;10.27;7.30;;;;;;;7.34;60.50;100897.75;10296028;28;20057;-82
2022/03/28 01:12:36;;;;;;;12.30;7.80;;;;;;;7.33;60.38;100884.75;10296671;28;20085;-82
2022/03/28 01:23:00;;;;;;;12.05;7.88;;;;;;;7.21;60.79;100880.81;10294557;28;20449;-81
2022/03/28 01:28:03;;;;;;;12.50;8.02;;;;;;;7.19;60.60;100874.78;10296192;28;20082;-82
2022/03/28 01:33:06;;;;;;;11.00;8.52;;;;;;;7.06;60.80;100868.28;10296841;28;20140;-82
2022/03/28 01:38:11;;;;;;;9.88;7.47;;;;;;;6.96;60.85;100857.28;10293906;28;20086;-82
2022/03/28 01:43:13;;;;;;;10.88;8.00;;;;;;;6.94;61.01;100853.88;10296101;28;20105;-82
2022/03/28 01:48:15;;;;;;;13.35;7.82;;;;;;;6.93;60.87;100853.94;10295691;28;20058;-81
2022/03/28 01:53:17;;;;;;;9.90;7.38;;;;;;;6.90;60.69;100851.41;10294918;28;20133;-82
2022/03/28 01:58:18;;;;;;;11.48;7.28;;;;;;;6.89;60.77;100850.59;10295318;28;20050;-82
2022/03/28 02:03:20;;;;;;;11.70;8.07;;;;;;;6.88;60.45;100851.47;10298513;28;20086;-81
2022/03/28 02:08:22;;;;;;;11.30;7.82;;;;;;;6.79;60.53;100854.34;10298560;28;20141;-82
2022/03/28 02:13:24;;;;;;;12.77;7.90;;;;;;;6.72;60.58;100846.75;10300946;28;20145;-81
2022/03/28 02:18:25;;;;;;;14.75;8.40;;;;;;;6.67;60.91;100846.06;10301288;28;20361;-82
2022/03/28 02:23:30;;;;;;;11.40;9.15;;;;;;;6.52;61.38;100836.97;10299600;28;20058;-82
2022/03/28 02:28:32;;;;;;;13.07;7.88;;;;;;;6.52;61.01;100846.50;10298848;28;20090;-82
2022/03/28 02:33:33;;;;;;;10.93;8.13;;;;;;;6.38;61.26;100838.25;10298289;28;20164;-82
2022/03/28 02:38:35;;;;;;;11.05;8.50;;;;;;;6.29;61.34;100837.59;10298797;28;20078;-81
2022/03/28 02:43:37;;;;;;;11.70;8.68;;;;;;;6.26;61.27;100832.50;10299024;28;20065;-82
2022/03/28 02:48:39;;;;;;;11.73;8.48;;;;;;;6.27;61.05;100833.34;10296400;28;20265;-81
2022/03/28 02:53:41;;;;;;;12.80;9.00;;;;;;;6.19;61.23;100820.53;10280025;28;20125;-83
2022/03/28 02:58:43;;;;;;;10.82;8.52;;;;;;;6.10;61.34;100815.59;10299668;28;20126;-83
2022/03/28 03:03:45;;;;;;;11.48;9.10;;;;;;;6.01;61.63;100809.81;10297240;28;20141;-82
2022/03/28 03:08:47;;;;;;;10.50;8.20;;;;;;;5.92;61.70;100802.28;10291365;28;20133;-82
2022/03/28 03:13:49;;;;;;;12.82;9.32;;;;;;;5.93;61.96;100799.63;10293483;28;20139;-83
2022/03/28 03:18:51;;;;;;;11.30;7.60;;;;;;;5.96;61.73;100803.91;10295898;28;20126;-82
2022/03/28 03:23:53;;;;;;;15.40;8.93;;;;;;;5.94;61.37;100796.13;10274627;28;20466;-83
2022/03/28 03:28:55;;;;;;;12.13;9.45;;;;;;;5.88;61.65;100787.69;10293532;28;20082;-83
2022/03/28 03:33:57;;;;;;;13.73;9.75;;;;;;;5.76;62.04;100783.66;10289821;28;20068;-83
2022/03/28 03:38:59;;;;;;;12.73;9.30;;;;;;;5.73;62.07;100778.56;10290872;28;20073;-83
2022/03/28 03:44:01;;;;;;;10.70;8.27;;;;;;;5.75;61.71;100787.16;10274492;28;20145;-83
2022/03/28 03:49:03;;;;;;;12.43;9.00;;;;;;;5.75;61.55;100781.97;10288052;28;20141;-83
2022/03/28 03:54:05;;;;;;;11.65;8.23;;;;;;;5.69;61.59;100782.13;10290309;28;20082;-83
2022/03/28 03:59:07;;;;;;;13.13;8.70;;;;;;;5.61;61.56;100776.28;10290591;28;20055;-82
2022/03/28 04:04:12;;;;;;;11.07;8.73;;;;;;;5.55;61.49;100774.69;10290384;28;20568;-83
2022/03/28 04:09:14;;;;;;;10.52;8.05;;;;;;;5.49;61.73;100768.81;10291108;28;20074;-83
2022/03/28 04:14:16;;;;;;;12.57;8.95;;;;;;;5.44;61.58;100770.66;10289795;28;20138;-83
2022/03/28 04:19:17;;;;;;;11.93;8.45;;;;;;;5.36;61.76;100763.09;10292033;28;20145;-83
2022/03/28 04:24:20;;;;;;;11.88;9.27;;;;;;;5.30;61.79;100758.06;10290687;28;20061;-83
2022/03/28 04:29:22;;;;;;;13.50;9.10;;;;;;;5.26;61.85;100755.56;10292336;28;20141;-83
2022/03/28 04:34:24;;;;;;;14.10;8.90;;;;;;;5.20;61.84;100754.00;10290033;28;20086;-83
2022/03/28 04:39:25;;;;;;;16.77;9.60;;;;;;;5.09;61.75;100753.38;10291599;28;20133;-83
2022/03/28 04:44:27;;;;;;;14.02;10.07;;;;;;;5.05;62.28;100754.34;10286107;28;20059;-83
2022/03/28 04:49:29;;;;;;;17.05;9.80;;;;;;;5.02;62.12;100757.03;10295508;28;20196;-83
2022/03/28 04:54:30;;;;;;;13.93;10.40;;;;;;;4.93;62.35;100752.06;10297344;28;20146;-83
2022/03/28 04:59:32;;;;;;;14.45;9.55;;;;;;;4.91;62.02;100752.97;10296460;28;20393;-83
2022/03/28 05:04:35;;;;;;;15.23;10.43;;;;;;;4.83;62.29;100749.72;10294208;28;20142;-83
2022/03/28 05:09:36;;;;;;;12.07;9.35;;;;;;;4.71;62.32;100758.63;10297148;28;20137;-82
2022/03/28 05:14:38;;;;;;;13.23;10.13;;;;;;;4.70;62.42;100754.31;10292447;28;20116;-82
2022/03/28 05:19:40;;;;;;;12.02;9.13;;;;;;;4.69;62.24;100747.44;10290247;28;20468;-82
2022/03/28 05:24:42;;;;;;;13.90;9.75;;;;;;;4.72;62.28;100743.03;10297210;28;20153;-82
2022/03/28 05:29:44;;;;;;;13.38;10.07;;;;;;;4.81;62.30;100756.66;10290874;28;20050;-82
2022/03/28 05:34:46;;;;;;;11.82;8.60;;;;;;;4.82;62.10;100761.81;10293908;28;20154;-82
2022/03/28 05:39:48;;;;;;;13.80;9.07;;;;;;;4.92;61.82;100757.28;10290027;28;20378;-82
2022/03/28 05:44:50;;;;;;;13.65;9.93;;;;;;;5.00;61.70;100753.63;10294944;28;20144;-82
2022/03/28 05:49:51;;;;;;;12.93;9.27;;;;;;;5.09;61.44;100749.94;10293362;28;20145;-83
2022/03/28 05:54:53;;;;;;;13.27;9.32;;;;;;;5.21;61.36;100752.22;10293224;28;20896;-82
2022/03/28 05:59:56;;;;;;;11.73;9.63;;;;;;;5.22;61.64;100753.94;10291787;28;20101;-82
2022/03/28 06:04:58;;;;;;;15.00;10.90;;;;;;;5.34;61.21;100749.31;10291192;28;20113;-82
2022/03/28 06:10:00;;;;;;;12.63;9.38;;;;;;;5.44;61.17;100760.28;10293145;28;20108;-82
2022/03/28 06:15:03;;;;;;;13.00;9.90;;;;;;;5.55;60.90;100756.50;10289027;28;20896;-82
2022/03/28 06:20:05;;;;;;;15.02;10.38;;;;;;;5.64;60.86;100755.44;10291855;28;20086;-82
2022/03/28 06:25:08;;;;;;;16.63;11.43;;;;;;;5.79;60.50;100749.84;10290752;28;20064;-82
2022/03/28 06:30:30;;;;;;;15.18;10.77;;;;;;;5.84;60.47;100745.34;10290234;28;20505;-82
2022/03/28 06:35:32;;;;;;;16.88;12.13;;;;;;;6.02;60.52;100750.03;10288183;28;20165;-82
2022/03/28 06:40:34;;;;;;;13.80;10.68;;;;;;;6.20;60.13;100739.16;10293192;28;20082;-82
2022/03/28 06:45:36;;;;;;;17.58;11.40;;;;;;;6.32;60.24;100737.97;10284226;28;20089;-82
2022/03/28 06:50:38;;;;;;;13.55;10.35;;;;;;;6.57;59.96;100732.88;10280998;28;20046;-75
2022/03/28 06:55:40;;;;;;;15.38;10.55;;;;;;;6.58;60.19;100725.03;10267413;28;20142;-75
2022/03/28 07:00:42;;;;;;;13.18;10.23;;;;;;;6.71;60.08;100726.38;10267206;28;20079;-75
2022/03/28 07:05:44;;;;;;;15.48;11.55;;;;;;;6.77;60.12;100720.97;10270826;28;20162;-75
2022/03/28 07:10:46;;;;;;;15.13;12.13;;;;;;;6.88;60.09;100713.66;10265398;28;20065;-75
2022/03/28 07:15:48;;;;;;;16.30;10.75;;;;;;;7.01;60.15;100699.38;10267538;28;20148;-75
2022/03/28 07:20:53;;;;;;;16.20;10.65;;;;;;;7.13;60.11;100700.72;10264319;28;20058;-75
2022/03/28 07:25:56;;;;;;;14.88;9.93;;;;;;;7.34;59.78;100686.97;10287461;28;20054;-74
2022/03/28 07:30:58;;;;;;;15.13;9.63;;;;;;;7.56;59.60;100692.28;10266210;28;20169;-75
2022/03/28 07:36:00;;;;;;;14.23;10.07;;;;;;;7.78;59.50;100688.00;10241108;28;20439;-75
2022/03/28 07:41:05;;;;;;;13.63;9.85;;;;;;;7.89;59.29;100678.03;10266416;28;20693;-75
2022/03/28 07:46:10;;;;;;;14.38;10.85;;;;;;;8.17;59.35;100670.94;10263629;28;20142;-75
2022/03/28 07:51:12;;;;;;;15.52;11.23;;;;;;;8.92;58.35;100663.56;10267469;28;20129;-75
2022/03/28 07:56:14;;;;;;;15.98;12.45;;;;;;;9.52;57.11;100664.41;10264290;28;20504;-75
2022/03/28 08:01:16;;;;;;;17.10;11.75;;;;;;;9.85;56.23;100656.88;10261886;28;20061;-74
2022/03/28 08:06:18;;;;;;;13.55;11.40;;;;;;;10.42;55.17;100646.34;10263332;28;20065;-74
2022/03/28 08:11:21;;;;;;;14.90;11.60;;;;;;;11.19;54.28;100642.50;10263771;28;20445;-75
2022/03/28 08:16:23;;;;;;;17.13;11.98;;;;;;;11.72;53.32;100636.25;10256318;28;20062;-74
2022/03/28 08:21:25;;;;;;;18.35;11.93;;;;;;;11.92;52.66;100628.19;10269766;28;20113;-74
2022/03/28 08:26:27;;;;;;;15.65;12.00;;;;;;;12.29;52.21;100624.41;10268951;28;20062;-74
2022/03/28 08:31:29;;;;;;;14.70;11.45;;;;;;;12.53;51.85;100618.63;10267603;28;20546;-74
2022/03/28 08:36:31;;;;;;;14.57;11.98;;;;;;;12.68;51.05;100604.63;10275838;28;20566;-75
2022/03/28 08:41:34;;;;;;;14.18;10.90;;;;;;;12.90;51.14;100589.31;10274181;28;20419;-74
2022/03/28 08:46:40;;;;;;;14.27;12.20;;;;;;;13.21;50.41;100595.38;10251409;28;20139;-74
2022/03/28 08:51:43;;;;;;;14.15;11.65;;;;;;;13.56;49.89;100583.59;10264817;28;20241;-74
2022/03/28 08:56:46;;;;;;;16.45;12.15;;;;;;;13.73;49.16;100581.63;10242626;28;20055;-74
2022/03/28 09:01:49;;;;;;;18.67;12.05;;;;;;;14.03;48.99;100576.19;10272412;28;20110;-74
2022/03/28 09:06:51;;;;;;;13.25;11.00;;;;;;;14.39;48.04;100568.56;10276464;28;20061;-77
2022/03/28 09:12:13;;;;;;;14.32;11.02;;;;;;;14.55;47.24;100555.28;10282381;28;20142;-77
2022/03/28 09:17:16;;;;;;;12.25;10.20;;;;;;;15.18;46.96;100547.47;10272407;28;20156;-77
2022/03/28 09:22:20;;;;;;;14.80;11.27;;;;;;;15.49;46.38;100540.91;10267088;28;20437;-77
2022/03/28 09:27:25;;;;;;;20.05;11.05;;;;;;;15.65;45.90;100531.84;10284887;28;20055;-77
2022/03/28 09:32:36;;;;;;;14.57;10.02;;;;;;;15.56;46.40;100532.47;10282601;28;20114;-77
2022/03/28 09:37:48;;;;;;;13.68;10.13;;;;;;;15.94;45.37;100514.72;10276537;28;20061;-77
2022/03/28 09:42:51;;;;;;;14.82;10.85;;;;;;;16.24;45.62;100507.19;10283532;28;20050;-77
2022/03/28 09:47:56;;;;;;;13.80;10.10;;;;;;;16.33;45.91;100505.69;10276494;28;20054;-78
2022/03/28 09:53:15;;;;;;;11.70;8.98;;;;;;;16.53;44.62;100486.59;10280857;28;20054;-77
2022/03/28 09:58:47;;;;;;;12.40;9.98;;;;;;;16.79;44.48;100492.53;10286351;28;20066;-78
2022/03/28 10:03:52;;;;;;;11.55;9.75;;;;;;;16.77;43.99;100484.72;10280402;28;20065;-77
2022/03/28 10:08:56;;;;;;;13.35;10.23;;;;;;;17.01;44.12;100467.00;10286210;28;20050;-78
2022/03/28 10:13:58;;;;;;;11.75;9.02;;;;;;;17.45;43.42;100458.22;10270017;28;20180;-78
2022/03/28 10:19:03;;;;;;;14.65;9.23;;;;;;;17.64;42.67;100449.66;10280245;28;20145;-78
2022/03/28 10:24:07;;;;;;;11.98;8.80;;;;;;;17.91;41.70;100433.34;10253382;28;20133;-78
2022/03/28 10:29:18;;;;;;;14.48;9.35;;;;;;;17.97;41.47;100425.75;10287222;28;20061;-78
2022/03/28 10:34:56;;;;;;;9.73;8.07;;;;;;;18.25;40.10;100408.41;10275812;28;20141;-78
2022/03/28 10:40:29;;;;;;;12.75;7.38;;;;;;;18.50;39.86;100398.25;10213604;28;20125;-77
2022/03/28 10:45:57;;;;;;;11.48;8.23;;;;;;;18.76;38.46;100393.41;10278823;28;20050;-77
2022/03/28 10:51:11;;;;;;;14.95;7.30;;;;;;;18.82;37.48;100386.72;10259898;28;20054;-78
2022/03/28 10:56:15;;;;;;;13.75;6.47;;;;;;;18.75;36.54;100370.50;10282417;28;20106;-79
2022/03/28 11:01:19;;;;;;;13.30;6.95;;;;;;;18.94;36.57;100369.75;10291353;28;21123;-78
2022/03/28 11:06:43;;;;;;;11.55;6.43;;;;;;;18.87;35.08;100355.38;10274880;28;20066;-78
2022/03/28 11:12:00;;;;;;;12.85;6.78;;;;;;;19.13;35.15;100338.88;10282803;28;20055;-78
2022/03/28 11:17:16;;;;;;;13.10;6.22;;;;;;;19.22;33.94;100331.91;10259403;28;20054;-78
2022/03/28 11:22:18;;;;;;;10.20;5.22;;;;;;;18.91;33.37;100333.75;10254024;28;20058;-78
2022/03/28 11:27:23;;;;;;;7.53;3.80;;;;;;;19.09;31.27;100321.56;10280744;28;20058;-78
2022/03/28 11:32:31;;;;;;;7.85;4.65;;;;;;;19.31;29.96;100321.31;10271437;28;20393;-78
2022/03/28 11:37:33;;;;;;;7.22;4.20;;;;;;;19.24;29.59;100312.22;10274620;28;20113;-78
2022/03/28 11:42:37;;;;;;;7.55;4.38;;;;;;;19.17;29.26;100310.28;10276675;28;20089;-78
2022/03/28 11:47:50;;;;;;;6.47;3.90;;;;;;;19.40;27.93;100304.56;10278658;28;20057;-78
2022/03/28 11:52:52;;;;;;;9.15;4.28;;;;;;;19.50;27.91;100301.94;10282786;28;20957;-78
2022/03/28 11:58:14;;;;;;;8.40;4.20;;;;;;;19.56;27.69;100277.50;10288935;28;20512;-78
2022/03/28 12:03:17;;;;;;;7.07;4.18;;;;;;;19.71;27.45;100278.72;10269543;28;20636;-78
2022/03/28 12:08:21;;;;;;;8.20;4.85;;;;;;;19.70;26.86;100274.41;10281375;28;20059;-78
2022/03/28 12:13:24;;;;;;;7.90;4.40;;;;;;;19.62;26.63;100258.38;10279755;28;20100;-78
2022/03/28 12:18:30;;;;;;;10.75;5.22;;;;;;;19.55;26.41;100254.59;10274621;28;20428;-78
2022/03/28 12:23:32;;;;;;;10.25;5.07;;;;;;;19.77;27.04;100232.19;10273420;28;20086;-78
2022/03/28 12:28:38;;;;;;;11.20;6.07;;;;;;;19.80;26.23;100221.31;10257663;28;20066;-78
2022/03/28 12:33:43;;;;;;;9.45;5.18;;;;;;;19.71;26.95;100220.34;10284583;28;20054;-78
2022/03/28 12:38:56;;;;;;;8.00;5.15;;;;;;;19.82;25.98;100219.38;10278151;28;20089;-78
2022/03/28 12:43:59;;;;;;;8.95;5.78;;;;;;;19.93;26.67;100204.13;10281008;28;20113;-78
2022/03/28 12:49:08;;;;;;;11.68;6.22;;;;;;;20.14;25.70;100195.94;10269297;28;20153;-78
2022/03/28 12:54:22;;;;;;;9.40;6.70;;;;;;;20.06;24.73;100175.44;10277773;28;20621;-78
2022/03/28 12:59:29;;;;;;;12.77;6.00;;;;;;;20.04;26.20;100166.78;10263896;28;20136;-78
2022/03/28 13:04:44;;;;;;;10.15;5.63;;;;;;;20.21;23.83;100167.81;10282564;28;20054;-78
2022/03/28 13:10:02;;;;;;;10.43;6.20;;;;;;;20.09;23.61;100153.88;10290577;28;20050;-78
2022/03/28 13:15:06;;;;;;;8.20;5.20;;;;;;;20.21;25.04;100138.63;10284315;28;20058;-78
2022/03/28 13:20:08;;;;;;;9.73;5.63;;;;;;;20.45;24.58;100132.72;10288102;28;20093;-78
2022/03/28 13:25:21;;;;;;;9.90;5.32;;;;;;;20.75;23.51;100121.78;10288403;28;20121;-78
2022/03/28 13:30:24;;;;;;;10.13;5.53;;;;;;;20.74;24.00;100110.28;10293921;28;20054;-78
2022/03/28 13:35:27;;;;;;;11.73;5.80;;;;;;;20.88;23.35;100101.81;10286539;28;20046;-78
2022/03/28 13:40:30;;;;;;;10.77;5.20;;;;;;;20.75;23.22;100092.53;10275513;28;20055;-78
2022/03/28 13:45:32;;;;;;;8.93;5.65;;;;;;;20.66;23.42;100094.28;10272269;28;20141;-78
2022/03/28 13:50:35;;;;;;;11.68;5.88;;;;;;;20.61;23.36;100085.94;10281516;28;21230;-78
2022/03/28 13:55:57;;;;;;;12.57;5.35;;;;;;;20.48;23.49;100080.13;10287032;28;20054;-78
2022/03/28 14:00:59;;;;;;;9.77;5.30;;;;;;;20.31;24.16;100083.63;10278913;28;20586;-78
2022/03/28 14:06:02;;;;;;;12.02;6.03;;;;;;;20.22;24.15;100079.19;10292705;28;20058;-78
2022/03/28 14:11:06;;;;;;;12.57;5.93;;;;;;;20.21;24.46;100058.94;10289623;28;20066;-78
2022/03/28 14:16:08;;;;;;;11.93;5.65;;;;;;;20.49;23.88;100055.25;10282444;28;20075;-78
2022/03/28 14:21:11;;;;;;;10.85;5.88;;;;;;;20.77;24.27;100048.88;10278475;28;20059;-78
2022/03/28 14:26:15;;;;;;;12.15;6.30;;;;;;;21.35;23.62;100033.19;10290621;28;20054;-78
2022/03/28 14:31:17;;;;;;;9.95;5.30;;;;;;;21.48;24.23;100027.41;10284031;28;20053;-78
2022/03/28 14:36:20;;;;;;;12.55;5.97;;;;;;;21.56;24.09;100017.66;10275557;28;20810;-78
2022/03/28 14:41:22;;;;;;;12.57;6.65;;;;;;;21.20;24.30;100016.09;10284757;28;20055;-78
2022/03/28 14:51:45;;;;;;;11.57;6.75;;;;;;;21.38;24.31;99992.13;10276239;28;20170;-78
2022/03/28 14:57:21;;;;;;;16.83;7.47;;;;;;;21.26;23.08;99988.03;10285781;28;20054;-79
2022/03/28 15:02:23;;;;;;;11.60;6.90;;;;;;;21.29;23.88;99979.75;10291088;28;20662;-78
2022/03/28 15:07:25;;;;;;;15.02;7.05;;;;;;;21.17;22.98;99965.88;10257790;28;20766;-78
2022/03/28 15:12:27;;;;;;;13.20;6.82;;;;;;;21.16;23.49;99964.22;10254413;28;20061;-77
2022/03/28 15:17:29;;;;;;;12.05;7.03;;;;;;;21.12;23.33;99957.56;10290881;28;20061;-78
2022/03/28 15:22:31;;;;;;;12.70;6.70;;;;;;;20.97;22.75;99954.63;10261058;28;20122;-78
2022/03/28 15:27:33;;;;;;;11.40;6.35;;;;;;;20.60;23.16;99951.38;10264582;28;20069;-78
2022/03/28 15:32:34;;;;;;;10.82;6.75;;;;;;;20.77;22.41;99955.00;10260775;28;20097;-78
2022/03/28 15:37:36;;;;;;;11.20;7.25;;;;;;;20.66;21.52;99942.78;10280783;28;20054;-78
2022/03/28 15:42:38;;;;;;;12.77;7.38;;;;;;;20.47;21.51;99939.47;10258483;28;20054;-78
2022/03/28 15:47:42;;;;;;;11.35;7.30;;;;;;;20.21;21.13;99928.81;10283478;28;20057;-78
2022/03/28 15:52:43;;;;;;;13.60;7.10;;;;;;;20.07;21.42;99924.84;10282635;28;20095;-78
2022/03/28 15:57:45;;;;;;;18.33;7.05;;;;;;;20.12;21.06;99921.75;10280653;28;20050;-78
2022/03/28 16:02:47;;;;;;;14.43;7.00;;;;;;;20.13;21.08;99918.13;10281390;28;20110;-78
2022/03/28 16:07:49;;;;;;;10.43;7.13;;;;;;;19.86;20.98;99902.25;10280751;28;20059;-78
2022/03/28 16:12:51;;;;;;;17.35;6.78;;;;;;;19.83;21.00;99899.91;10283407;28;20058;-78
2022/03/28 16:17:53;;;;;;;11.75;7.15;;;;;;;19.62;21.08;99894.03;10273301;28;20061;-78
2022/03/28 16:22:55;;;;;;;10.20;6.88;;;;;;;19.53;21.27;99885.13;10276945;28;20058;-78
2022/03/28 16:27:56;;;;;;;11.70;6.63;;;;;;;19.19;21.55;99895.53;10294649;28;20065;-78
2022/03/28 16:32:58;;;;;;;16.38;6.68;;;;;;;19.18;22.39;99885.91;10270477;28;20141;-78
2022/03/28 16:38:00;;;;;;;11.32;7.28;;;;;;;19.02;22.21;99895.47;10274593;28;20055;-78
2022/03/28 16:43:03;;;;;;;17.25;7.32;;;;;;;18.74;24.27;99885.78;10282778;28;20086;-78
2022/03/28 16:48:05;;;;;;;20.73;8.60;;;;;;;18.70;25.14;99881.75;10263627;28;20468;-78
2022/03/28 16:53:09;;;;;;;20.48;7.55;;;;;;;18.53;25.86;99888.63;10283286;28;20058;-78
2022/03/28 16:58:17;;;;;;;20.27;8.02;;;;;;;18.38;26.55;99882.94;10296076;28;20066;-78
2022/03/28 17:03:19;;;;;;;13.45;6.78;;;;;;;18.27;27.36;99884.91;10285475;28;20148;-78
2022/03/28 17:08:21;;;;;;;13.25;7.43;;;;;;;18.10;28.00;99878.47;10287791;28;20043;-77
2022/03/28 17:13:25;;;;;;;14.63;8.50;;;;;;;18.02;28.65;99890.72;10293494;28;21119;-78
2022/03/28 17:18:28;;;;;;;15.20;8.40;;;;;;;17.83;29.40;99886.31;10286090;28;20054;-77
2022/03/28 17:23:32;;;;;;;17.88;9.95;;;;;;;17.71;29.64;99879.44;10301133;28;20050;-78
2022/03/28 17:28:34;;;;;;;19.02;9.93;;;;;;;17.54;29.86;99877.50;10270152;28;20046;-78
2022/03/28 17:33:40;;;;;;;18.40;10.13;;;;;;;17.46;30.42;99872.91;10271740;28;20050;-78
2022/03/28 17:38:42;;;;;;;22.63;10.98;;;;;;;17.20;30.82;99874.31;10298232;28;20054;-78
2022/03/28 17:43:44;;;;;;;25.60;12.68;;;;;;;17.09;31.02;99882.34;10280455;28;20118;-78
2022/03/28 17:48:46;;;;;;;23.05;11.70;;;;;;;16.96;31.62;99876.47;10282766;28;20159;-78
2022/03/28 17:53:49;;;;;;;18.50;11.70;;;;;;;16.81;31.72;99878.63;10293546;28;20074;-78
2022/03/28 17:58:56;;;;;;;18.67;11.85;;;;;;;16.63;32.00;99879.38;10286352;28;20049;-78
2022/03/28 18:04:01;;;;;;;22.75;12.30;;;;;;;16.50;32.07;99876.09;10289637;28;20058;-78
2022/03/28 18:09:04;;;;;;;19.10;11.05;;;;;;;16.31;32.92;99884.69;10283153;28;20054;-78
2022/03/28 18:14:06;;;;;;;17.02;11.50;;;;;;;16.04;33.28;99877.28;10282407;28;20050;-78
2022/03/28 18:19:08;;;;;;;22.27;12.52;;;;;;;15.82;33.36;99884.47;10281822;28;20055;-78
2022/03/28 18:24:10;;;;;;;18.65;11.82;;;;;;;15.77;33.57;99894.56;10281149;28;20055;-78
2022/03/28 18:29:13;;;;;;;17.38;10.93;;;;;;;15.66;33.65;99897.22;10279066;28;21067;-78
2022/03/28 18:34:15;;;;;;;21.85;12.45;;;;;;;15.49;34.32;99903.00;10274972;28;20531;-77
2022/03/28 18:39:17;;;;;;;22.00;11.60;;;;;;;15.38;34.71;99907.34;10276272;28;20094;-77
2022/03/28 18:44:20;;;;;;;24.70;12.80;;;;;;;15.29;34.85;99902.78;10275415;28;20648;-77
2022/03/28 18:49:22;;;;;;;26.10;12.93;;;;;;;15.25;34.63;99905.78;10268475;28;20398;-77
2022/03/28 18:54:23;;;;;;;25.77;14.32;;;;;;;15.30;34.41;99906.25;10271904;28;20085;-77
2022/03/28 18:59:34;;;;;;;22.33;13.00;;;;;;;15.22;34.58;99904.25;10277319;28;20058;-77
2022/03/28 19:04:36;;;;;;;23.63;12.20;;;;;;;15.19;34.75;99917.66;10268808;28;20095;-77
2022/03/28 19:09:37;;;;;;;19.40;11.90;;;;;;;14.95;35.54;99919.56;10278621;28;20050;-77
2022/03/28 19:14:40;;;;;;;19.35;11.38;;;;;;;14.79;35.98;99916.47;10275452;28;20059;-77
2022/03/28 19:19:44;;;;;;;20.35;11.73;;;;;;;14.72;36.14;99915.25;10262806;28;20140;-74
2022/03/28 19:24:46;;;;;;;16.77;10.40;;;;;;;14.55;36.76;99911.25;10278965;28;20327;-75
2022/03/28 19:29:49;;;;;;;21.38;11.25;;;;;;;14.37;37.02;99910.00;10265562;28;20051;-74
2022/03/28 19:34:51;;;;;;;20.30;11.43;;;;;;;14.17;37.35;99910.66;10265344;28;20047;-75
2022/03/28 19:39:53;;;;;;;23.25;13.02;;;;;;;14.01;37.71;99901.41;10265749;28;20428;-74
2022/03/28 19:44:55;;;;;;;19.15;11.68;;;;;;;13.86;37.62;99903.34;10266013;28;20055;-74
2022/03/28 19:49:59;;;;;;;21.48;11.73;;;;;;;13.78;37.76;99903.09;10266555;28;20082;-75
2022/03/28 19:55:16;;;;;;;21.83;11.80;;;;;;;13.73;38.76;99899.97;10264165;28;20093;-74
2022/03/28 20:00:19;;;;;;;21.02;11.02;;;;;;;13.65;38.73;99900.53;10297129;28;20063;-75
2022/03/28 20:05:21;;;;;;;22.13;11.25;;;;;;;13.49;38.91;99888.63;10265732;28;20131;-74
2022/03/28 20:10:23;;;;;;;23.50;11.30;;;;;;;13.48;39.04;99889.56;10264965;28;20079;-74
2022/03/28 20:15:25;;;;;;;21.60;11.13;;;;;;;13.30;39.47;99888.22;10254654;28;20054;-74
2022/03/28 20:20:27;;;;;;;19.92;11.80;;;;;;;13.14;39.90;99887.63;10278939;28;20154;-74
2022/03/28 20:25:30;;;;;;;18.48;11.95;;;;;;;13.00;39.97;99890.41;10295890;28;20459;-74
2022/03/28 20:30:32;;;;;;;20.95;10.85;;;;;;;12.87;40.50;99895.66;10272317;28;20381;-74
2022/03/28 20:35:34;;;;;;;21.38;11.38;;;;;;;12.84;40.76;99895.91;10271417;28;20051;-74
2022/03/28 20:40:36;;;;;;;21.55;12.20;;;;;;;12.79;40.66;99897.97;10254926;28;20086;-74
2022/03/28 20:45:37;;;;;;;18.10;10.85;;;;;;;12.73;40.86;99887.91;10284662;28;20144;-74
2022/03/28 20:50:40;;;;;;;18.27;10.93;;;;;;;12.61;40.80;99889.59;10274341;28;20500;-74
2022/03/28 20:55:42;;;;;;;24.38;12.30;;;;;;;12.46;41.25;99877.53;10277034;28;20098;-74
2022/03/28 21:00:44;;;;;;;19.02;11.50;;;;;;;12.25;41.50;99878.97;10288600;28;20081;-74
2022/03/28 21:05:47;;;;;;;20.75;12.43;;;;;;;12.09;41.92;99870.41;10254270;28;20099;-74
2022/03/28 21:10:49;;;;;;;25.90;12.40;;;;;;;11.98;41.67;99871.16;10282178;28;20076;-74
2022/03/28 21:15:51;;;;;;;23.45;12.73;;;;;;;11.96;41.93;99874.81;10271515;28;20086;-75
2022/03/28 21:20:53;;;;;;;19.67;12.25;;;;;;;11.83;42.17;99859.06;10303552;28;20166;-74
2022/03/28 21:25:55;;;;;;;20.38;12.20;;;;;;;11.79;42.22;99854.13;10288036;28;20078;-75
2022/03/28 21:30:57;;;;;;;17.85;11.05;;;;;;;11.73;42.79;99857.13;10259672;28;20083;-74
2022/03/28 21:36:00;;;;;;;19.77;12.40;;;;;;;11.64;42.89;99852.50;10271014;28;20109;-74
2022/03/28 21:41:02;;;;;;;20.27;11.32;;;;;;;11.53;43.51;99847.13;10257217;28;20046;-75
2022/03/28 21:46:05;;;;;;;20.00;11.68;;;;;;;11.51;43.41;99847.22;10289252;28;20054;-74
2022/03/28 21:51:07;;;;;;;22.10;12.07;;;;;;;11.39;43.67;99847.19;10287875;28;20048;-74
2022/03/28 21:56:09;;;;;;;18.23;11.50;;;;;;;11.17;44.13;99843.28;10273408;28;20098;-74
2022/03/28 22:01:11;;;;;;;20.55;12.70;;;;;;;11.04;44.31;99836.34;10268204;28;20110;-74
2022/03/28 22:06:13;;;;;;;23.08;13.05;;;;;;;11.02;44.38;99836.41;10267265;28;20146;-74
2022/03/28 22:11:15;;;;;;;23.80;12.45;;;;;;;11.04;44.60;99841.56;10268252;28;20055;-74
2022/03/28 22:16:17;;;;;;;19.65;11.95;;;;;;;11.20;44.38;99834.41;10282644;28;20142;-74
2022/03/28 22:21:18;;;;;;;16.95;12.02;;;;;;;11.26;44.37;99837.50;10281732;28;20144;-74
2022/03/28 22:26:20;;;;;;;20.38;12.43;;;;;;;11.29;44.49;99829.44;10273834;28;20869;-74
2022/03/28 22:31:22;;;;;;;20.05;12.02;;;;;;;11.19;44.77;99830.94;10282757;28;20078;-74
2022/03/28 22:36:24;;;;;;;17.63;11.70;;;;;;;11.20;44.85;99822.19;10283582;28;20081;-74
2022/03/28 22:41:26;;;;;;;23.83;12.02;;;;;;;11.18;44.81;99818.81;10288450;28;20051;-74
2022/03/28 22:46:28;;;;;;;18.63;11.73;;;;;;;11.08;45.12;99816.88;10272468;28;20073;-74
2022/03/28 22:51:30;;;;;;;23.17;11.68;;;;;;;11.11;45.25;99820.13;10266406;28;20504;-74
2022/03/28 22:56:33;;;;;;;21.75;11.95;;;;;;;11.02;45.57;99812.00;10281732;28;20144;-75
2022/03/28 23:01:34;;;;;;;19.17;11.00;;;;;;;10.96;45.56;99812.38;10286708;28;20133;-74
2022/03/28 23:06:36;;;;;;;23.33;12.05;;;;;;;11.01;45.40;99811.16;10266098;28;20165;-74
2022/03/28 23:11:38;;;;;;;18.77;11.60;;;;;;;10.98;45.70;99807.91;10265401;28;20564;-74
2022/03/28 23:16:40;;;;;;;23.63;11.82;;;;;;;11.03;45.70;99809.28;10274916;28;20435;-74